createdAt,value
2016-02-24T00:00:14.361Z,0
2016-02-24T00:01:14.348Z,0
2016-02-24T00:02:14.366Z,0
2016-02-24T00:03:14.353Z,0
2016-02-24T00:04:14.341Z,0
2016-02-24T00:05:14.359Z,0
2016-02-24T00:06:14.330Z,0
2016-02-24T00:07:14.349Z,0
2016-02-24T00:08:14.320Z,0
2016-02-24T00:09:14.213Z,0
2016-02-24T00:10:14.325Z,0
2016-02-24T00:11:14.327Z,0
2016-02-24T00:12:14.424Z,0
2016-02-24T00:13:14.364Z,0
2016-02-24T00:14:14.336Z,0
2016-02-24T00:15:14.323Z,0
2016-02-24T00:16:14.372Z,0
2016-02-24T00:17:14.343Z,0
2016-02-24T00:18:14.346Z,0
2016-02-24T00:19:14.317Z,0
2016-02-24T00:20:14.352Z,0
2016-02-24T00:21:14.182Z,0
2016-02-24T00:22:14.310Z,0
2016-02-24T00:23:14.312Z,0
2016-02-24T00:24:14.316Z,0
2016-02-24T00:25:14.318Z,0
2016-02-24T00:26:14.321Z,0
2016-02-24T00:27:14.309Z,0
2016-02-24T00:28:14.311Z,0
2016-02-24T00:29:14.329Z,0
2016-02-24T00:30:14.317Z,0
2016-02-24T00:31:14.319Z,0
2016-02-24T00:32:14.322Z,0
2016-02-24T00:33:14.309Z,0
2016-02-24T00:34:14.296Z,0
2016-02-24T00:35:14.329Z,0
2016-02-24T00:36:14.291Z,0
2016-02-24T00:37:14.324Z,0
2016-02-24T00:38:14.311Z,0
2016-02-24T00:39:14.282Z,0
2016-02-24T00:40:14.301Z,0
2016-02-24T00:41:14.304Z,0
2016-02-24T00:42:14.275Z,0
2016-02-24T00:43:14.309Z,0
2016-02-24T00:44:14.296Z,0
2016-02-24T00:45:14.299Z,0
2016-02-24T00:46:14.302Z,0
2016-02-24T00:47:14.289Z,0
2016-02-24T00:48:14.276Z,0
2016-02-24T00:49:14.279Z,0
2016-02-24T00:50:14.297Z,0
2016-02-24T00:51:14.284Z,0
2016-02-24T00:52:14.270Z,0
2016-02-24T00:53:14.290Z,0
2016-02-24T00:54:14.276Z,0
2016-02-24T00:55:14.279Z,0
2016-02-24T00:56:14.266Z,0
2016-02-24T00:57:14.284Z,0
2016-02-24T00:58:14.255Z,0
2016-02-24T00:59:14.275Z,0
2016-02-24T01:00:14.277Z,0
2016-02-24T01:01:14.279Z,0
2016-02-24T01:02:14.267Z,0
2016-02-24T01:03:14.253Z,0
2016-02-24T01:04:14.288Z,0
2016-02-24T01:05:13.963Z,0
2016-02-24T01:06:14.262Z,0
2016-02-24T01:07:14.269Z,0
2016-02-24T01:08:14.257Z,0
2016-02-24T01:09:14.259Z,0
2016-02-24T01:10:14.246Z,0
2016-02-24T01:11:14.265Z,0
2016-02-24T01:12:14.267Z,0
2016-02-24T01:13:14.285Z,0
2016-02-24T01:14:14.256Z,0
2016-02-24T01:15:14.244Z,0
2016-02-24T01:16:14.278Z,0
2016-02-24T01:17:14.233Z,0
2016-02-24T01:18:14.236Z,0
2016-02-24T01:19:14.239Z,0
2016-02-24T01:20:14.257Z,0
2016-02-24T01:21:14.259Z,0
2016-02-24T01:22:14.247Z,0
2016-02-24T01:23:14.250Z,0
2016-02-24T01:24:14.237Z,0
2016-02-24T01:25:14.239Z,0
2016-02-24T01:26:14.227Z,0
2016-02-24T01:27:14.260Z,0
2016-02-24T01:28:14.248Z,0
2016-02-24T01:29:14.219Z,0
2016-02-24T01:30:14.222Z,0
2016-02-24T01:31:14.255Z,0
2016-02-24T01:32:14.227Z,0
2016-02-24T01:33:14.246Z,0
2016-02-24T01:34:14.233Z,0
2016-02-24T01:35:14.251Z,0
2016-02-24T01:36:14.222Z,0
2016-02-24T01:37:14.240Z,0
2016-02-24T01:38:14.260Z,0
2016-02-24T01:39:14.246Z,0
2016-02-24T01:40:14.249Z,0
2016-02-24T01:41:14.235Z,0
2016-02-24T01:42:14.207Z,0
2016-02-24T01:43:14.240Z,0
2016-02-24T01:44:14.213Z,0
2016-02-24T01:45:14.215Z,0
2016-02-24T01:46:14.233Z,0
2016-02-24T01:47:14.220Z,0
2016-02-24T01:48:14.254Z,0
2016-02-24T01:49:14.210Z,0
2016-02-24T01:50:14.212Z,0
2016-02-24T01:51:14.231Z,0
2016-02-24T01:52:14.218Z,0
2016-02-24T01:53:14.221Z,0
2016-02-24T01:54:14.224Z,0
2016-02-24T01:55:14.211Z,0
2016-02-24T01:56:14.197Z,0
2016-02-24T01:57:14.248Z,0
2016-02-24T01:58:14.203Z,0
2016-02-24T01:59:14.191Z,0
2016-02-24T02:00:14.209Z,0
2016-02-24T02:01:14.242Z,0
2016-02-24T02:02:14.214Z,0
2016-02-24T02:03:14.216Z,0
2016-02-24T02:04:14.204Z,0
2016-02-24T02:05:14.190Z,0
2016-02-24T02:06:14.209Z,0
2016-02-24T02:07:14.212Z,0
2016-02-24T02:08:14.199Z,0
2016-02-24T02:09:14.202Z,0
2016-02-24T02:10:14.173Z,0
2016-02-24T02:11:14.207Z,0
2016-02-24T02:12:14.179Z,0
2016-02-24T02:13:14.213Z,0
2016-02-24T02:14:14.215Z,0
2016-02-24T02:15:14.201Z,0
2016-02-24T02:16:14.174Z,0
2016-02-24T02:17:14.192Z,0
2016-02-24T02:18:14.179Z,0
2016-02-24T02:19:14.213Z,0
2016-02-24T02:20:14.184Z,0
2016-02-24T02:21:14.187Z,0
2016-02-24T02:22:14.190Z,0
2016-02-24T02:23:14.192Z,0
2016-02-24T02:24:14.179Z,0
2016-02-24T02:25:14.181Z,0
2016-02-24T02:26:14.185Z,0
2016-02-24T02:27:14.187Z,0
2016-02-24T02:28:14.190Z,0
2016-02-24T02:29:14.178Z,0
2016-02-24T02:30:14.181Z,0
2016-02-24T02:31:14.167Z,0
2016-02-24T02:32:14.170Z,0
2016-02-24T02:33:14.173Z,0
2016-02-24T02:34:14.206Z,0
2016-02-24T02:35:14.163Z,0
2016-02-24T02:36:14.165Z,0
2016-02-24T02:37:14.168Z,0
2016-02-24T02:38:14.170Z,0
2016-02-24T02:39:14.188Z,0
2016-02-24T02:40:14.160Z,0
2016-02-24T02:41:14.194Z,0
2016-02-24T02:42:14.165Z,0
2016-02-24T02:43:14.168Z,0
2016-02-24T02:44:14.155Z,0
2016-02-24T02:45:14.157Z,0
2016-02-24T02:46:14.176Z,0
2016-02-24T02:47:14.148Z,0
2016-02-24T02:48:14.151Z,0
2016-02-24T02:49:14.153Z,0
2016-02-24T02:50:14.156Z,0
2016-02-24T02:51:14.142Z,0
2016-02-24T02:52:14.146Z,0
2016-02-24T02:53:14.164Z,0
2016-02-24T02:54:14.150Z,0
2016-02-24T02:55:14.154Z,0
2016-02-24T02:56:14.156Z,0
2016-02-24T02:57:14.159Z,0
2016-02-24T02:58:14.162Z,0
2016-02-24T02:59:14.148Z,0
2016-02-24T03:00:14.025Z,0
2016-02-24T03:01:14.153Z,0
2016-02-24T03:02:14.141Z,0
2016-02-24T03:03:14.144Z,0
2016-02-24T03:04:14.161Z,0
2016-02-24T03:05:14.149Z,0
2016-02-24T03:06:14.136Z,0
2016-02-24T03:07:14.154Z,0
2016-02-24T03:08:14.158Z,0
2016-02-24T03:09:14.144Z,0
2016-02-24T03:10:14.178Z,0
2016-02-24T03:11:14.135Z,0
2016-02-24T03:12:14.152Z,0
2016-02-24T03:13:14.124Z,0
2016-02-24T03:14:14.143Z,0
2016-02-24T03:15:14.129Z,0
2016-02-24T03:16:13.977Z,0
2016-02-24T03:17:14.152Z,0
2016-02-24T03:18:14.186Z,0
2016-02-24T03:19:13.969Z,0
2016-02-24T03:20:14.143Z,0
2016-02-24T03:21:14.131Z,0
2016-02-24T03:22:14.133Z,0
2016-02-24T03:23:14.152Z,0
2016-02-24T03:24:14.123Z,0
2016-02-24T03:25:14.110Z,0
2016-02-24T03:26:14.175Z,0
2016-02-24T03:27:14.132Z,0
2016-02-24T03:28:14.134Z,0
2016-02-24T03:29:14.152Z,0
2016-02-24T03:30:14.123Z,0
2016-02-24T03:31:14.110Z,0
2016-02-24T03:32:14.113Z,0
2016-02-24T03:33:13.990Z,0
2016-02-24T03:34:14.118Z,0
2016-02-24T03:35:14.121Z,0
2016-02-24T03:36:14.139Z,0
2016-02-24T03:37:14.111Z,0
2016-02-24T03:38:14.129Z,0
2016-02-24T03:39:14.117Z,0
2016-02-24T03:40:14.117Z,0
2016-02-24T03:41:14.108Z,0
2016-02-24T03:42:14.082Z,0
2016-02-24T03:43:14.088Z,0
2016-02-24T03:44:14.079Z,0
2016-02-24T03:45:14.054Z,0
2016-02-24T03:46:14.070Z,0
2016-02-24T03:47:13.896Z,0
2016-02-24T03:48:14.035Z,0
2016-02-24T03:49:14.018Z,0
2016-02-24T03:50:14.094Z,0
2016-02-24T03:51:14.017Z,0
2016-02-24T03:52:14.019Z,0
2016-02-24T03:53:14.019Z,0
2016-02-24T03:54:14.021Z,0
2016-02-24T03:55:14.006Z,0
2016-02-24T03:56:13.993Z,0
2016-02-24T03:57:14.027Z,0
2016-02-24T03:58:13.997Z,0
2016-02-24T03:59:13.999Z,0
2016-02-24T04:00:14.032Z,0
2016-02-24T04:01:14.019Z,0
2016-02-24T04:02:13.990Z,0
2016-02-24T04:03:14.118Z,0
2016-02-24T04:04:14.011Z,0
2016-02-24T04:05:14.004Z,0
2016-02-24T04:06:14.006Z,0
2016-02-24T04:07:13.993Z,0
2016-02-24T04:08:14.012Z,0
2016-02-24T04:09:13.983Z,0
2016-02-24T04:10:14.001Z,0
2016-02-24T04:11:13.989Z,0
2016-02-24T04:12:13.991Z,0
2016-02-24T04:13:13.837Z,0
2016-02-24T04:14:13.997Z,0
2016-02-24T04:15:13.842Z,0
2016-02-24T04:16:13.986Z,0
2016-02-24T04:17:14.005Z,0
2016-02-24T04:18:13.991Z,0
2016-02-24T04:19:13.994Z,0
2016-02-24T04:20:13.996Z,0
2016-02-24T04:21:13.984Z,0
2016-02-24T04:22:14.002Z,0
2016-02-24T04:23:13.989Z,0
2016-02-24T04:24:13.977Z,0
2016-02-24T04:25:13.979Z,0
2016-02-24T04:26:13.982Z,0
2016-02-24T04:27:14.000Z,0
2016-02-24T04:28:14.003Z,0
2016-02-24T04:29:13.974Z,0
2016-02-24T04:30:13.976Z,0
2016-02-24T04:31:13.980Z,0
2016-02-24T04:32:13.967Z,0
2016-02-24T04:33:14.016Z,0
2016-02-24T04:34:13.973Z,0
2016-02-24T04:35:14.037Z,0
2016-02-24T04:36:13.977Z,0
2016-02-24T04:37:13.981Z,0
2016-02-24T04:38:13.983Z,0
2016-02-24T04:39:13.986Z,0
2016-02-24T04:40:13.972Z,0
2016-02-24T04:41:13.975Z,0
2016-02-24T04:42:13.962Z,0
2016-02-24T04:43:13.997Z,0
2016-02-24T04:44:13.968Z,0
2016-02-24T04:45:14.002Z,0
2016-02-24T04:46:13.957Z,0
2016-02-24T04:47:14.008Z,0
2016-02-24T04:48:13.978Z,0
2016-02-24T04:49:13.981Z,0
2016-02-24T04:50:13.952Z,0
2016-02-24T04:51:13.971Z,0
2016-02-24T04:52:13.974Z,0
2016-02-24T04:53:13.991Z,0
2016-02-24T04:54:13.952Z,0
2016-02-24T04:55:13.954Z,0
2016-02-24T04:56:14.035Z,0
2016-02-24T04:57:13.959Z,0
2016-02-24T04:58:13.947Z,0
2016-02-24T04:59:13.964Z,0
2016-02-24T05:00:13.967Z,0
2016-02-24T05:01:13.955Z,0
2016-02-24T05:02:13.958Z,0
2016-02-24T05:03:13.804Z,0
2016-02-24T05:04:13.932Z,0
2016-02-24T05:05:13.966Z,0
2016-02-24T05:06:13.937Z,0
2016-02-24T05:07:13.955Z,0
2016-02-24T05:08:13.943Z,0
2016-02-24T05:09:13.945Z,0
2016-02-24T05:10:13.963Z,0
2016-02-24T05:11:13.951Z,0
2016-02-24T05:12:13.954Z,0
2016-02-24T05:13:13.940Z,0
2016-02-24T05:14:13.959Z,0
2016-02-24T05:15:13.946Z,0
2016-02-24T05:16:13.965Z,0
2016-02-24T05:17:13.935Z,0
2016-02-24T05:18:13.954Z,0
2016-02-24T05:19:13.972Z,0
2016-02-24T05:20:13.928Z,0
2016-02-24T05:21:13.945Z,0
2016-02-24T05:22:13.934Z,0
2016-02-24T05:23:13.936Z,0
2016-02-24T05:24:13.939Z,0
2016-02-24T05:25:13.942Z,0
2016-02-24T05:26:13.944Z,0
2016-02-24T05:27:13.947Z,0
2016-02-24T05:28:13.918Z,0
2016-02-24T05:29:13.936Z,0
2016-02-24T05:30:13.939Z,0
2016-02-24T05:31:13.925Z,0
2016-02-24T05:32:13.928Z,0
2016-02-24T05:33:13.947Z,0
2016-02-24T05:34:13.918Z,0
2016-02-24T05:35:13.922Z,0
2016-02-24T05:36:13.939Z,0
2016-02-24T05:37:13.926Z,0
2016-02-24T05:38:13.914Z,0
2016-02-24T05:39:13.916Z,0
2016-02-24T05:40:13.950Z,0
2016-02-24T05:41:13.921Z,0
2016-02-24T05:42:13.924Z,0
2016-02-24T05:43:13.943Z,0
2016-02-24T05:44:13.914Z,0
2016-02-24T05:45:13.933Z,0
2016-02-24T05:46:13.763Z,0
2016-02-24T05:47:13.765Z,0
2016-02-24T05:48:13.768Z,0
2016-02-24T05:49:13.928Z,0
2016-02-24T05:50:13.915Z,0
2016-02-24T05:51:13.917Z,0
2016-02-24T05:52:13.920Z,0
2016-02-24T05:53:13.939Z,0
2016-02-24T05:54:13.926Z,0
2016-02-24T05:55:13.929Z,0
2016-02-24T05:56:13.915Z,0
2016-02-24T05:57:13.918Z,0
2016-02-24T05:58:13.936Z,0
2016-02-24T05:59:13.923Z,0
2016-02-24T06:00:13.910Z,0
2016-02-24T06:01:13.913Z,0
2016-02-24T06:02:13.915Z,0
2016-02-24T06:03:13.919Z,0
2016-02-24T06:04:13.905Z,0
2016-02-24T06:05:13.908Z,0
2016-02-24T06:06:13.895Z,0
2016-02-24T06:07:13.897Z,0
2016-02-24T06:08:13.901Z,0
2016-02-24T06:09:13.904Z,0
2016-02-24T06:10:13.938Z,0
2016-02-24T06:11:13.925Z,0
2016-02-24T06:12:13.897Z,0
2016-02-24T06:13:13.900Z,0
2016-02-24T06:14:13.933Z,0
2016-02-24T06:15:13.905Z,0
2016-02-24T06:16:13.923Z,0
2016-02-24T06:17:13.910Z,0
2016-02-24T06:18:13.928Z,0
2016-02-24T06:19:13.931Z,0
2016-02-24T06:20:13.887Z,0
2016-02-24T06:21:13.921Z,5
2016-02-24T06:22:13.892Z,5
2016-02-24T06:23:13.911Z,5
2016-02-24T06:24:13.897Z,5
2016-02-24T06:25:13.885Z,5
2016-02-24T06:26:13.902Z,5
2016-02-24T06:27:13.905Z,5
2016-02-24T06:28:13.892Z,5
2016-02-24T06:29:13.910Z,5
2016-02-24T06:30:13.898Z,5
2016-02-24T06:31:13.885Z,5
2016-02-24T06:32:13.888Z,5
2016-02-24T06:33:13.906Z,10
2016-02-24T06:34:13.878Z,10
2016-02-24T06:35:13.911Z,10
2016-02-24T06:36:13.884Z,10
2016-02-24T06:37:13.886Z,10
2016-02-24T06:38:13.904Z,10
2016-02-24T06:39:13.859Z,10
2016-02-24T06:40:13.894Z,10
2016-02-24T06:41:13.881Z,10
2016-02-24T06:42:13.883Z,10
2016-02-24T06:43:13.871Z,10
2016-02-24T06:44:13.919Z,10
2016-02-24T06:45:13.978Z,10
2016-02-24T06:46:13.856Z,10
2016-02-24T06:47:17.061Z,10
2016-02-24T06:48:13.860Z,10
2016-02-24T06:49:13.863Z,15
2016-02-24T06:50:13.928Z,15
2016-02-24T06:51:13.853Z,15
2016-02-24T06:52:13.855Z,15
2016-02-24T06:53:13.890Z,15
2016-02-24T06:54:13.861Z,20
2016-02-24T06:55:13.849Z,20
2016-02-24T06:56:13.882Z,20
2016-02-24T06:57:13.853Z,20
2016-02-24T06:58:13.888Z,20
2016-02-24T06:59:13.874Z,20
2016-02-24T07:00:13.893Z,20
2016-02-24T07:01:13.880Z,15
2016-02-24T07:02:13.852Z,15
2016-02-24T07:03:13.838Z,15
2016-02-24T07:04:13.856Z,15
2016-02-24T07:05:13.844Z,20
2016-02-24T07:06:13.940Z,20
2016-02-24T07:07:13.848Z,20
2016-02-24T07:08:13.852Z,20
2016-02-24T07:09:13.844Z,25
2016-02-24T07:10:13.846Z,25
2016-02-24T07:11:13.897Z,30
2016-02-24T07:12:13.867Z,35
2016-02-24T07:13:13.855Z,35
2016-02-24T07:14:13.685Z,40
2016-02-24T07:15:13.735Z,40
2016-02-24T07:16:13.847Z,45
2016-02-24T07:17:13.693Z,45
2016-02-24T07:18:13.869Z,45
2016-02-24T07:19:13.855Z,50
2016-02-24T07:20:13.841Z,50
2016-02-24T07:21:13.860Z,55
2016-02-24T07:22:13.847Z,55
2016-02-24T07:23:13.835Z,55
2016-02-24T07:24:13.837Z,50
2016-02-24T07:25:13.855Z,50
2016-02-24T07:26:13.858Z,50
2016-02-24T07:27:13.829Z,45
2016-02-24T07:28:13.849Z,40
2016-02-24T07:29:13.835Z,40
2016-02-24T07:30:13.854Z,40
2016-02-24T07:31:13.840Z,45
2016-02-24T07:32:13.843Z,45
2016-02-24T07:33:13.846Z,45
2016-02-24T07:34:13.833Z,50
2016-02-24T07:35:13.836Z,50
2016-02-24T07:36:13.838Z,50
2016-02-24T07:37:13.841Z,50
2016-02-24T07:38:13.828Z,50
2016-02-24T07:39:13.830Z,55
2016-02-24T07:40:13.833Z,55
2016-02-24T07:41:13.836Z,60
2016-02-24T07:42:13.822Z,65
2016-02-24T07:43:13.841Z,75
2016-02-24T07:44:13.860Z,85
2016-02-24T07:45:13.878Z,85
2016-02-24T07:46:13.818Z,80
2016-02-24T07:47:13.836Z,75
2016-02-24T07:48:13.824Z,65
2016-02-24T07:49:13.827Z,65
2016-02-24T07:50:13.844Z,65
2016-02-24T07:51:13.832Z,70
2016-02-24T07:52:13.866Z,70
2016-02-24T07:53:13.853Z,75
2016-02-24T07:54:13.840Z,80
2016-02-24T07:55:13.858Z,75
2016-02-24T07:56:13.846Z,65
2016-02-24T07:57:13.832Z,55
2016-02-24T07:58:13.679Z,55
2016-02-24T07:59:13.869Z,55
2016-02-24T08:00:13.824Z,55
2016-02-24T08:01:13.843Z,60
2016-02-24T08:02:13.829Z,55
2016-02-24T08:03:13.833Z,55
2016-02-24T08:04:13.914Z,50
2016-02-24T08:05:13.822Z,50
2016-02-24T08:06:13.826Z,55
2016-02-24T08:07:13.859Z,55
2016-02-24T08:08:13.815Z,60
2016-02-24T08:09:13.817Z,65
2016-02-24T08:10:13.820Z,75
2016-02-24T08:11:13.839Z,90
2016-02-24T08:12:13.826Z,105
2016-02-24T08:13:13.828Z,110
2016-02-24T08:14:13.831Z,130
2016-02-24T08:15:13.849Z,135
2016-02-24T08:16:13.836Z,135
2016-02-24T08:17:13.823Z,125
2016-02-24T08:18:13.841Z,120
2016-02-24T08:19:13.860Z,110
2016-02-24T08:20:13.832Z,100
2016-02-24T08:21:13.834Z,90
2016-02-24T08:22:13.837Z,85
2016-02-24T08:23:13.840Z,80
2016-02-24T08:24:13.827Z,80
2016-02-24T08:25:13.829Z,85
2016-02-24T08:26:13.832Z,90
2016-02-24T08:27:13.835Z,100
2016-02-24T08:28:13.837Z,105
2016-02-24T08:29:13.841Z,110
2016-02-24T08:30:13.843Z,115
2016-02-24T08:31:13.829Z,115
2016-02-24T08:32:13.832Z,115
2016-02-24T08:33:13.835Z,120
2016-02-24T08:34:13.838Z,120
2016-02-24T08:35:13.840Z,125
2016-02-24T08:36:13.828Z,125
2016-02-24T08:37:13.831Z,130
2016-02-24T08:38:13.848Z,135
2016-02-24T08:39:13.836Z,135
2016-02-24T08:40:13.839Z,135
2016-02-24T08:41:13.856Z,140
2016-02-24T08:42:13.859Z,145
2016-02-24T08:43:13.831Z,150
2016-02-24T08:44:13.849Z,155
2016-02-24T08:45:13.836Z,165
2016-02-24T08:46:13.855Z,165
2016-02-24T08:47:13.686Z,165
2016-02-24T08:48:13.844Z,170
2016-02-24T08:49:13.878Z,170
2016-02-24T08:50:13.866Z,165
2016-02-24T08:51:13.852Z,160
2016-02-24T08:52:13.839Z,155
2016-02-24T08:53:13.842Z,150
2016-02-24T08:54:13.844Z,150
2016-02-24T08:55:13.863Z,145
2016-02-24T08:56:13.882Z,145
2016-02-24T08:57:13.853Z,145
2016-02-24T08:58:13.855Z,140
2016-02-24T08:59:13.843Z,145
2016-02-24T09:00:13.846Z,150
2016-02-24T09:01:13.692Z,145
2016-02-24T09:02:13.866Z,145
2016-02-24T09:03:13.713Z,145
2016-02-24T09:04:13.887Z,145
2016-02-24T09:05:13.859Z,140
2016-02-24T09:06:13.846Z,145
2016-02-24T09:07:13.864Z,150
2016-02-24T09:08:13.867Z,155
2016-02-24T09:09:13.870Z,150
2016-02-24T09:10:13.842Z,150
2016-02-24T09:11:13.687Z,145
2016-02-24T09:12:13.722Z,140
2016-02-24T09:13:13.865Z,130
2016-02-24T09:14:13.898Z,130
2016-02-24T09:15:13.869Z,130
2016-02-24T09:16:13.873Z,130
2016-02-24T09:17:13.875Z,135
2016-02-24T09:18:13.863Z,135
2016-02-24T09:19:13.897Z,140
2016-02-24T09:20:13.868Z,140
2016-02-24T09:21:13.871Z,145
2016-02-24T09:22:13.874Z,140
2016-02-24T09:23:13.891Z,135
2016-02-24T09:24:13.879Z,130
2016-02-24T09:25:13.912Z,125
2016-02-24T09:26:13.885Z,115
2016-02-24T09:27:13.902Z,115
2016-02-24T09:28:13.874Z,120
2016-02-24T09:29:13.908Z,125
2016-02-24T09:30:13.895Z,125
2016-02-24T09:31:13.898Z,130
2016-02-24T09:32:13.885Z,135
2016-02-24T09:33:13.887Z,140
2016-02-24T09:34:13.764Z,140
2016-02-24T09:35:13.892Z,135
2016-02-24T09:36:13.879Z,140
2016-02-24T09:37:13.898Z,150
2016-02-24T09:38:13.917Z,150
2016-02-24T09:39:13.903Z,145
2016-02-24T09:40:13.890Z,145
2016-02-24T09:41:13.908Z,145
2016-02-24T09:42:13.912Z,140
2016-02-24T09:43:13.898Z,140
2016-02-24T09:44:13.916Z,140
2016-02-24T09:45:13.904Z,145
2016-02-24T09:46:13.906Z,155
2016-02-24T09:47:13.925Z,160
2016-02-24T09:48:13.912Z,165
2016-02-24T09:49:13.914Z,160
2016-02-24T09:50:13.917Z,165
2016-02-24T09:51:13.905Z,165
2016-02-24T09:52:13.907Z,165
2016-02-24T09:53:13.925Z,170
2016-02-24T09:54:13.928Z,165
2016-02-24T09:55:13.931Z,170
2016-02-24T09:56:13.933Z,170
2016-02-24T09:57:13.936Z,165
2016-02-24T09:58:13.939Z,165
2016-02-24T09:59:13.941Z,155
2016-02-24T10:00:13.929Z,150
2016-02-24T10:01:13.931Z,150
2016-02-24T10:02:13.934Z,150
2016-02-24T10:03:13.951Z,150
2016-02-24T10:04:13.940Z,145
2016-02-24T10:05:13.926Z,140
2016-02-24T10:06:13.945Z,140
2016-02-24T10:07:13.948Z,140
2016-02-24T10:08:13.950Z,140
2016-02-24T10:09:13.953Z,135
2016-02-24T10:10:13.940Z,135
2016-02-24T10:11:13.973Z,130
2016-02-24T10:12:13.961Z,125
2016-02-24T10:13:13.964Z,120
2016-02-24T10:14:13.967Z,115
2016-02-24T10:15:13.969Z,110
2016-02-24T10:16:13.862Z,110
2016-02-24T10:17:13.959Z,110
2016-02-24T10:18:13.977Z,110
2016-02-24T10:19:13.964Z,110
2016-02-24T10:20:13.983Z,110
2016-02-24T10:21:13.969Z,105
2016-02-24T10:22:13.972Z,100
2016-02-24T10:23:13.991Z,100
2016-02-24T10:24:13.836Z,100
2016-02-24T10:25:13.980Z,100
2016-02-24T10:26:13.983Z,105
2016-02-24T10:27:14.001Z,105
2016-02-24T10:28:13.988Z,105
2016-02-24T10:29:13.991Z,110
2016-02-24T10:30:13.993Z,110
2016-02-24T10:31:13.996Z,115
2016-02-24T10:32:13.983Z,115
2016-02-24T10:33:14.001Z,120
2016-02-24T10:34:14.021Z,115
2016-02-24T10:35:14.007Z,120
2016-02-24T10:36:14.073Z,120
2016-02-24T10:37:13.996Z,120
2016-02-24T10:38:14.015Z,120
2016-02-24T10:39:14.002Z,120
2016-02-24T10:40:13.989Z,125
2016-02-24T10:41:14.023Z,120
2016-02-24T10:42:14.010Z,115
2016-02-24T10:43:14.028Z,110
2016-02-24T10:44:14.016Z,110
2016-02-24T10:45:14.018Z,110
2016-02-24T10:46:14.005Z,115
2016-02-24T10:47:14.023Z,120
2016-02-24T10:48:14.011Z,125
2016-02-24T10:49:14.028Z,135
2016-02-24T10:50:14.031Z,140
2016-02-24T10:51:14.050Z,140
2016-02-24T10:52:14.037Z,140
2016-02-24T10:53:13.884Z,140
2016-02-24T10:54:14.027Z,145
2016-02-24T10:55:14.029Z,140
2016-02-24T10:56:14.611Z,140
2016-02-24T10:57:14.035Z,140
2016-02-24T10:58:14.052Z,140
2016-02-24T10:59:14.041Z,140
2016-02-24T11:00:14.043Z,140
2016-02-24T11:01:14.046Z,145
2016-02-24T11:02:14.064Z,150
2016-02-24T11:03:14.066Z,155
2016-02-24T11:04:14.038Z,155
2016-02-24T11:05:14.057Z,150
2016-02-24T11:06:14.043Z,150
2016-02-24T11:07:14.062Z,145
2016-02-24T11:08:14.033Z,135
2016-02-24T11:09:14.067Z,125
2016-02-24T11:10:14.070Z,115
2016-02-24T11:11:14.057Z,115
2016-02-24T11:12:14.060Z,110
2016-02-24T11:13:14.079Z,115
2016-02-24T11:14:14.050Z,115
2016-02-24T11:15:14.068Z,115
2016-02-24T11:16:14.071Z,110
2016-02-24T11:17:14.058Z,105
2016-02-24T11:18:14.060Z,110
2016-02-24T11:19:14.095Z,105
2016-02-24T11:20:14.081Z,105
2016-02-24T11:21:14.068Z,105
2016-02-24T11:22:14.087Z,105
2016-02-24T11:23:14.105Z,100
2016-02-24T11:24:14.092Z,100
2016-02-24T11:25:14.094Z,100
2016-02-24T11:26:14.097Z,100
2016-02-24T11:27:14.085Z,100
2016-02-24T11:28:14.088Z,95
2016-02-24T11:29:14.090Z,95
2016-02-24T11:30:14.092Z,100
2016-02-24T11:31:14.096Z,100
2016-02-24T11:32:14.082Z,95
2016-02-24T11:33:14.115Z,95
2016-02-24T11:34:14.088Z,100
2016-02-24T11:35:14.137Z,100
2016-02-24T11:36:14.109Z,95
2016-02-24T11:37:14.112Z,95
2016-02-24T11:38:14.098Z,95
2016-02-24T11:39:14.117Z,95
2016-02-24T11:40:14.120Z,95
2016-02-24T11:41:14.122Z,95
2016-02-24T11:42:14.109Z,95
2016-02-24T11:43:14.112Z,100
2016-02-24T11:44:14.114Z,100
2016-02-24T11:45:14.117Z,105
2016-02-24T11:46:14.120Z,115
2016-02-24T11:47:14.122Z,120
2016-02-24T11:48:14.470Z,115
2016-02-24T11:49:14.128Z,105
2016-02-24T11:50:14.130Z,105
2016-02-24T11:51:14.133Z,105
2016-02-24T11:52:14.136Z,100
2016-02-24T11:53:14.123Z,105
2016-02-24T11:54:14.125Z,105
2016-02-24T11:55:14.160Z,100
2016-02-24T11:56:14.130Z,105
2016-02-24T11:57:14.150Z,100
2016-02-24T11:58:14.152Z,100
2016-02-24T11:59:14.154Z,95
2016-02-24T12:00:14.141Z,95
2016-02-24T12:01:14.144Z,100
2016-02-24T12:02:14.132Z,105
2016-02-24T12:03:14.135Z,105
2016-02-24T12:04:14.137Z,110
2016-02-24T12:05:14.157Z,110
2016-02-24T12:06:14.144Z,105
2016-02-24T12:07:14.147Z,105
2016-02-24T12:08:14.150Z,105
2016-02-24T12:09:14.153Z,105
2016-02-24T12:10:14.155Z,105
2016-02-24T12:11:14.173Z,105
2016-02-24T12:12:14.161Z,100
2016-02-24T12:13:14.147Z,95
2016-02-24T12:14:14.166Z,95
2016-02-24T12:15:14.184Z,95
2016-02-24T12:16:14.155Z,90
2016-02-24T12:17:14.174Z,90
2016-02-24T12:18:14.161Z,85
2016-02-24T12:19:14.164Z,85
2016-02-24T12:20:14.166Z,90
2016-02-24T12:21:14.169Z,85
2016-02-24T12:22:14.172Z,85
2016-02-24T12:23:14.158Z,80
2016-02-24T12:24:14.161Z,80
2016-02-24T12:25:14.164Z,80
2016-02-24T12:26:14.182Z,80
2016-02-24T12:27:14.201Z,80
2016-02-24T12:28:14.188Z,80
2016-02-24T12:29:14.190Z,80
2016-02-24T12:30:14.177Z,80
2016-02-24T12:31:14.196Z,80
2016-02-24T12:32:14.182Z,85
2016-02-24T12:33:14.201Z,80
2016-02-24T12:34:14.187Z,80
2016-02-24T12:35:14.190Z,80
2016-02-24T12:36:14.225Z,80
2016-02-24T12:37:14.195Z,80
2016-02-24T12:38:14.214Z,75
2016-02-24T12:39:14.187Z,75
2016-02-24T12:40:14.189Z,75
2016-02-24T12:41:14.222Z,75
2016-02-24T12:42:14.195Z,80
2016-02-24T12:43:14.291Z,80
2016-02-24T12:44:14.200Z,80
2016-02-24T12:45:14.250Z,80
2016-02-24T12:46:14.203Z,80
2016-02-24T12:47:14.180Z,80
2016-02-24T12:48:14.172Z,80
2016-02-24T12:49:14.195Z,75
2016-02-24T12:50:14.157Z,75
2016-02-24T12:51:14.150Z,75
2016-02-24T12:52:14.165Z,75
2016-02-24T12:53:14.148Z,75
2016-02-24T12:54:14.146Z,75
2016-02-24T12:55:14.162Z,75
2016-02-24T12:56:14.130Z,75
2016-02-24T12:57:14.162Z,75
2016-02-24T12:58:14.132Z,80
2016-02-24T12:59:14.150Z,80
2016-02-24T13:00:14.151Z,80
2016-02-24T13:01:14.138Z,85
2016-02-24T13:02:14.140Z,90
2016-02-24T13:03:14.142Z,90
2016-02-24T13:04:14.145Z,90
2016-02-24T13:05:14.163Z,90
2016-02-24T13:06:14.134Z,90
2016-02-24T13:07:14.167Z,90
2016-02-24T13:08:14.154Z,90
2016-02-24T13:09:14.141Z,90
2016-02-24T13:10:14.174Z,90
2016-02-24T13:11:14.160Z,95
2016-02-24T13:12:14.148Z,95
2016-02-24T13:13:14.151Z,100
2016-02-24T13:14:14.138Z,100
2016-02-24T13:15:14.157Z,100
2016-02-24T13:16:14.160Z,100
2016-02-24T13:17:14.146Z,100
2016-02-24T13:18:14.165Z,100
2016-02-24T13:19:14.167Z,105
2016-02-24T13:20:14.623Z,105
2016-02-24T13:21:14.157Z,105
2016-02-24T13:22:14.159Z,110
2016-02-24T13:23:14.193Z,110
2016-02-24T13:24:14.164Z,110
2016-02-24T13:25:14.215Z,115
2016-02-24T13:26:14.014Z,115
2016-02-24T13:27:14.157Z,120
2016-02-24T13:28:14.176Z,120
2016-02-24T13:29:14.178Z,120
2016-02-24T13:30:14.181Z,120
2016-02-24T13:31:14.169Z,120
2016-02-24T13:32:14.186Z,120
2016-02-24T13:33:14.174Z,120
2016-02-24T13:34:14.036Z,120
2016-02-24T13:35:14.179Z,120
2016-02-24T13:36:14.197Z,120
2016-02-24T13:37:14.184Z,125
2016-02-24T13:38:14.172Z,125
2016-02-24T13:39:14.205Z,125
2016-02-24T13:40:14.176Z,125
2016-02-24T13:41:14.164Z,130
2016-02-24T13:42:14.198Z,130
2016-02-24T13:43:14.372Z,130
2016-02-24T13:44:14.171Z,130
2016-02-24T13:45:14.207Z,130
2016-02-24T13:46:14.177Z,130
2016-02-24T13:47:14.195Z,130
2016-02-24T13:48:14.182Z,130
2016-02-24T13:49:14.170Z,130
2016-02-24T13:50:14.203Z,125
2016-02-24T13:51:14.473Z,120
2016-02-24T13:52:14.193Z,120
2016-02-24T13:53:14.196Z,120
2016-02-24T13:54:14.199Z,120
2016-02-24T13:55:14.202Z,120
2016-02-24T13:56:14.189Z,125
2016-02-24T13:57:14.191Z,120
2016-02-24T13:58:14.194Z,125
2016-02-24T13:59:14.197Z,120
2016-02-24T14:00:14.214Z,120
2016-02-24T14:01:14.203Z,120
2016-02-24T14:02:14.220Z,115
2016-02-24T14:03:14.222Z,110
2016-02-24T14:04:14.273Z,110
2016-02-24T14:05:14.251Z,105
2016-02-24T14:06:14.222Z,105
2016-02-24T14:07:14.209Z,105
2016-02-24T14:08:14.212Z,105
2016-02-24T14:09:14.215Z,100
2016-02-24T14:10:14.248Z,95
2016-02-24T14:11:14.236Z,95
2016-02-24T14:12:14.206Z,95
2016-02-24T14:13:14.209Z,90
2016-02-24T14:14:14.229Z,90
2016-02-24T14:15:14.215Z,95
2016-02-24T14:16:14.233Z,95
2016-02-24T14:17:14.220Z,95
2016-02-24T14:18:14.222Z,95
2016-02-24T14:19:14.226Z,95